sensor_id;sensor_type;location;lat;lon;timestamp;P1;durP1;ratioP1;P2;durP2;ratioP2
72273;SDS011;60208;48.692;8.948;2023-05-29T00:00:30;8.40;;;5.07;;
72273;SDS011;60208;48.692;8.948;2023-05-29T00:02:55;11.50;;;5.50;;
72273;SDS011;60208;48.692;8.948;2023-05-29T00:05:20;10.25;;;5.45;;
72273;SDS011;60208;48.692;8.948;2023-05-29T00:07:46;10.18;;;5.65;;
72273;SDS011;60208;48.692;8.948;2023-05-29T00:10:12;8.65;;;5.25;;
72273;SDS011;60208;48.692;8.948;2023-05-29T00:12:38;9.52;;;5.00;;
72273;SDS011;60208;48.692;8.948;2023-05-29T00:15:04;7.40;;;5.30;;
72273;SDS011;60208;48.692;8.948;2023-05-29T00:17:29;7.75;;;5.00;;
72273;SDS011;60208;48.692;8.948;2023-05-29T00:19:58;9.70;;;5.00;;
72273;SDS011;60208;48.692;8.948;2023-05-29T00:22:24;9.18;;;5.38;;
72273;SDS011;60208;48.692;8.948;2023-05-29T00:24:51;10.43;;;6.03;;
72273;SDS011;60208;48.692;8.948;2023-05-29T00:27:17;10.50;;;5.85;;
72273;SDS011;60208;48.692;8.948;2023-05-29T00:29:42;10.10;;;5.57;;
72273;SDS011;60208;48.692;8.948;2023-05-29T00:32:08;10.43;;;5.43;;
72273;SDS011;60208;48.692;8.948;2023-05-29T00:34:33;10.77;;;5.63;;
72273;SDS011;60208;48.692;8.948;2023-05-29T00:36:59;9.60;;;5.72;;
72273;SDS011;60208;48.692;8.948;2023-05-29T00:39:24;8.73;;;5.60;;
72273;SDS011;60208;48.692;8.948;2023-05-29T00:41:50;11.15;;;5.38;;
72273;SDS011;60208;48.692;8.948;2023-05-29T00:44:19;8.35;;;5.65;;
72273;SDS011;60208;48.692;8.948;2023-05-29T00:46:45;8.75;;;5.40;;
72273;SDS011;60208;48.692;8.948;2023-05-29T00:49:11;7.53;;;5.30;;
72273;SDS011;60208;48.692;8.948;2023-05-29T00:51:37;8.23;;;5.50;;
72273;SDS011;60208;48.692;8.948;2023-05-29T00:54:04;8.80;;;5.38;;
72273;SDS011;60208;48.692;8.948;2023-05-29T00:56:32;10.32;;;5.57;;
72273;SDS011;60208;48.692;8.948;2023-05-29T00:58:57;9.00;;;5.45;;
72273;SDS011;60208;48.692;8.948;2023-05-29T01:01:23;7.72;;;5.22;;
72273;SDS011;60208;48.692;8.948;2023-05-29T01:03:49;11.15;;;5.88;;
72273;SDS011;60208;48.692;8.948;2023-05-29T01:06:15;9.07;;;5.60;;
72273;SDS011;60208;48.692;8.948;2023-05-29T01:08:41;8.00;;;5.82;;
72273;SDS011;60208;48.692;8.948;2023-05-29T01:11:31;9.35;;;5.53;;
72273;SDS011;60208;48.692;8.948;2023-05-29T01:13:55;10.98;;;5.68;;
72273;SDS011;60208;48.692;8.948;2023-05-29T01:16:25;9.45;;;5.45;;
72273;SDS011;60208;48.692;8.948;2023-05-29T01:22:12;10.70;;;5.55;;
72273;SDS011;60208;48.692;8.948;2023-05-29T01:24:50;10.52;;;5.82;;
72273;SDS011;60208;48.692;8.948;2023-05-29T01:27:22;10.07;;;5.35;;
72273;SDS011;60208;48.692;8.948;2023-05-29T01:29:50;11.50;;;5.45;;
72273;SDS011;60208;48.692;8.948;2023-05-29T01:32:17;8.85;;;5.97;;
72273;SDS011;60208;48.692;8.948;2023-05-29T01:34:42;12.85;;;5.65;;
72273;SDS011;60208;48.692;8.948;2023-05-29T01:37:08;9.40;;;5.40;;
72273;SDS011;60208;48.692;8.948;2023-05-29T01:39:33;9.90;;;5.38;;
72273;SDS011;60208;48.692;8.948;2023-05-29T01:41:59;10.68;;;5.07;;
72273;SDS011;60208;48.692;8.948;2023-05-29T01:44:26;8.52;;;5.05;;
72273;SDS011;60208;48.692;8.948;2023-05-29T01:46:52;9.13;;;5.25;;
72273;SDS011;60208;48.692;8.948;2023-05-29T01:49:18;11.35;;;5.38;;
72273;SDS011;60208;48.692;8.948;2023-05-29T01:51:44;8.73;;;5.60;;
72273;SDS011;60208;48.692;8.948;2023-05-29T01:54:09;10.80;;;5.53;;
72273;SDS011;60208;48.692;8.948;2023-05-29T01:56:35;10.88;;;5.82;;
72273;SDS011;60208;48.692;8.948;2023-05-29T01:59:01;10.27;;;5.07;;
72273;SDS011;60208;48.692;8.948;2023-05-29T02:01:28;10.57;;;5.57;;
72273;SDS011;60208;48.692;8.948;2023-05-29T02:03:53;9.77;;;5.43;;
72273;SDS011;60208;48.692;8.948;2023-05-29T02:06:19;8.13;;;5.45;;
72273;SDS011;60208;48.692;8.948;2023-05-29T02:08:44;11.23;;;5.53;;
72273;SDS011;60208;48.692;8.948;2023-05-29T02:11:10;9.35;;;5.95;;
72273;SDS011;60208;48.692;8.948;2023-05-29T02:13:36;11.27;;;5.80;;
72273;SDS011;60208;48.692;8.948;2023-05-29T02:16:02;9.07;;;5.25;;
72273;SDS011;60208;48.692;8.948;2023-05-29T02:18:27;11.90;;;5.63;;
72273;SDS011;60208;48.692;8.948;2023-05-29T02:20:52;9.18;;;5.70;;
72273;SDS011;60208;48.692;8.948;2023-05-29T02:23:18;9.82;;;5.60;;
72273;SDS011;60208;48.692;8.948;2023-05-29T02:25:44;8.85;;;5.65;;
72273;SDS011;60208;48.692;8.948;2023-05-29T02:28:11;9.32;;;5.80;;
72273;SDS011;60208;48.692;8.948;2023-05-29T02:30:36;10.82;;;5.43;;
72273;SDS011;60208;48.692;8.948;2023-05-29T02:33:01;11.65;;;5.85;;
72273;SDS011;60208;48.692;8.948;2023-05-29T02:35:27;10.75;;;5.43;;
72273;SDS011;60208;48.692;8.948;2023-05-29T02:37:52;9.40;;;5.25;;
72273;SDS011;60208;48.692;8.948;2023-05-29T02:40:18;8.75;;;5.70;;
72273;SDS011;60208;48.692;8.948;2023-05-29T02:42:44;8.68;;;5.53;;
72273;SDS011;60208;48.692;8.948;2023-05-29T02:45:10;8.20;;;5.38;;
72273;SDS011;60208;48.692;8.948;2023-05-29T02:47:35;10.85;;;6.10;;
72273;SDS011;60208;48.692;8.948;2023-05-29T02:50:01;9.45;;;5.70;;
72273;SDS011;60208;48.692;8.948;2023-05-29T02:52:27;10.18;;;5.68;;
72273;SDS011;60208;48.692;8.948;2023-05-29T02:54:53;8.85;;;5.80;;
72273;SDS011;60208;48.692;8.948;2023-05-29T02:57:19;10.23;;;5.70;;
72273;SDS011;60208;48.692;8.948;2023-05-29T02:59:45;10.43;;;6.00;;
72273;SDS011;60208;48.692;8.948;2023-05-29T03:02:11;8.32;;;5.18;;
72273;SDS011;60208;48.692;8.948;2023-05-29T03:04:36;9.02;;;5.80;;
72273;SDS011;60208;48.692;8.948;2023-05-29T03:07:02;12.73;;;5.55;;
72273;SDS011;60208;48.692;8.948;2023-05-29T03:09:27;12.63;;;5.20;;
72273;SDS011;60208;48.692;8.948;2023-05-29T03:11:52;11.13;;;5.30;;
72273;SDS011;60208;48.692;8.948;2023-05-29T03:14:18;10.25;;;5.55;;
72273;SDS011;60208;48.692;8.948;2023-05-29T03:16:44;8.63;;;5.93;;
72273;SDS011;60208;48.692;8.948;2023-05-29T03:19:09;9.43;;;5.53;;
72273;SDS011;60208;48.692;8.948;2023-05-29T03:21:35;8.77;;;5.22;;
72273;SDS011;60208;48.692;8.948;2023-05-29T03:24:01;9.85;;;5.75;;
72273;SDS011;60208;48.692;8.948;2023-05-29T03:26:27;10.18;;;5.57;;
72273;SDS011;60208;48.692;8.948;2023-05-29T03:28:53;8.77;;;5.65;;
72273;SDS011;60208;48.692;8.948;2023-05-29T03:31:19;10.65;;;5.85;;
72273;SDS011;60208;48.692;8.948;2023-05-29T03:33:44;10.23;;;5.90;;
72273;SDS011;60208;48.692;8.948;2023-05-29T03:36:10;11.75;;;5.63;;
72273;SDS011;60208;48.692;8.948;2023-05-29T03:38:36;8.57;;;5.80;;
72273;SDS011;60208;48.692;8.948;2023-05-29T03:41:01;9.45;;;5.55;;
72273;SDS011;60208;48.692;8.948;2023-05-29T03:43:27;9.25;;;5.45;;
72273;SDS011;60208;48.692;8.948;2023-05-29T03:45:52;9.25;;;5.63;;
72273;SDS011;60208;48.692;8.948;2023-05-29T03:48:18;9.43;;;5.97;;
72273;SDS011;60208;48.692;8.948;2023-05-29T03:50:44;9.13;;;5.30;;
72273;SDS011;60208;48.692;8.948;2023-05-29T03:53:11;9.32;;;5.70;;
72273;SDS011;60208;48.692;8.948;2023-05-29T03:55:36;7.70;;;5.13;;
72273;SDS011;60208;48.692;8.948;2023-05-29T03:58:01;11.60;;;6.05;;
72273;SDS011;60208;48.692;8.948;2023-05-29T04:00:27;9.63;;;5.75;;
72273;SDS011;60208;48.692;8.948;2023-05-29T04:02:52;8.57;;;5.72;;
72273;SDS011;60208;48.692;8.948;2023-05-29T04:05:19;9.63;;;6.10;;
72273;SDS011;60208;48.692;8.948;2023-05-29T04:07:45;10.15;;;5.90;;
72273;SDS011;60208;48.692;8.948;2023-05-29T04:10:11;9.55;;;5.60;;
72273;SDS011;60208;48.692;8.948;2023-05-29T04:12:36;9.40;;;5.43;;
72273;SDS011;60208;48.692;8.948;2023-05-29T04:15:01;8.02;;;5.68;;
72273;SDS011;60208;48.692;8.948;2023-05-29T04:17:28;8.82;;;5.18;;
72273;SDS011;60208;48.692;8.948;2023-05-29T04:19:53;9.60;;;5.35;;
72273;SDS011;60208;48.692;8.948;2023-05-29T04:22:19;8.88;;;5.25;;
72273;SDS011;60208;48.692;8.948;2023-05-29T04:24:45;9.68;;;5.30;;
72273;SDS011;60208;48.692;8.948;2023-05-29T04:27:11;9.18;;;6.10;;
72273;SDS011;60208;48.692;8.948;2023-05-29T04:29:41;9.15;;;5.53;;
72273;SDS011;60208;48.692;8.948;2023-05-29T04:32:07;11.93;;;5.93;;
72273;SDS011;60208;48.692;8.948;2023-05-29T04:34:36;9.48;;;5.30;;
72273;SDS011;60208;48.692;8.948;2023-05-29T04:37:03;7.85;;;5.40;;
72273;SDS011;60208;48.692;8.948;2023-05-29T04:39:29;10.10;;;5.40;;
72273;SDS011;60208;48.692;8.948;2023-05-29T04:41:55;9.80;;;5.35;;
72273;SDS011;60208;48.692;8.948;2023-05-29T04:44:24;8.38;;;5.47;;
72273;SDS011;60208;48.692;8.948;2023-05-29T04:46:51;8.85;;;5.50;;
72273;SDS011;60208;48.692;8.948;2023-05-29T04:49:17;9.82;;;5.70;;
72273;SDS011;60208;48.692;8.948;2023-05-29T04:51:43;8.55;;;5.07;;
72273;SDS011;60208;48.692;8.948;2023-05-29T04:54:10;8.55;;;5.60;;
72273;SDS011;60208;48.692;8.948;2023-05-29T04:56:36;8.52;;;5.47;;
72273;SDS011;60208;48.692;8.948;2023-05-29T04:59:01;9.20;;;5.35;;
72273;SDS011;60208;48.692;8.948;2023-05-29T05:01:27;10.13;;;5.45;;
72273;SDS011;60208;48.692;8.948;2023-05-29T05:03:53;10.15;;;5.60;;
72273;SDS011;60208;48.692;8.948;2023-05-29T05:06:21;12.35;;;5.45;;
72273;SDS011;60208;48.692;8.948;2023-05-29T05:08:47;8.10;;;5.70;;
72273;SDS011;60208;48.692;8.948;2023-05-29T05:11:12;7.10;;;5.43;;
72273;SDS011;60208;48.692;8.948;2023-05-29T05:13:38;10.15;;;5.70;;
72273;SDS011;60208;48.692;8.948;2023-05-29T05:16:04;10.63;;;5.82;;
72273;SDS011;60208;48.692;8.948;2023-05-29T05:18:30;9.05;;;5.22;;
72273;SDS011;60208;48.692;8.948;2023-05-29T05:20:56;10.30;;;5.20;;
72273;SDS011;60208;48.692;8.948;2023-05-29T05:23:21;7.72;;;5.57;;
72273;SDS011;60208;48.692;8.948;2023-05-29T05:25:46;7.53;;;5.43;;
72273;SDS011;60208;48.692;8.948;2023-05-29T05:28:12;9.30;;;5.32;;
72273;SDS011;60208;48.692;8.948;2023-05-29T05:30:38;6.82;;;5.05;;
72273;SDS011;60208;48.692;8.948;2023-05-29T05:33:03;7.78;;;4.88;;
72273;SDS011;60208;48.692;8.948;2023-05-29T05:35:29;9.30;;;5.45;;
72273;SDS011;60208;48.692;8.948;2023-05-29T05:37:54;8.30;;;4.85;;
72273;SDS011;60208;48.692;8.948;2023-05-29T05:40:22;6.57;;;4.75;;
72273;SDS011;60208;48.692;8.948;2023-05-29T05:42:48;11.10;;;5.00;;
72273;SDS011;60208;48.692;8.948;2023-05-29T05:45:14;8.30;;;4.95;;
72273;SDS011;60208;48.692;8.948;2023-05-29T05:47:39;10.77;;;5.13;;
72273;SDS011;60208;48.692;8.948;2023-05-29T05:50:05;7.82;;;4.63;;
72273;SDS011;60208;48.692;8.948;2023-05-29T05:52:30;7.53;;;4.57;;
72273;SDS011;60208;48.692;8.948;2023-05-29T05:54:57;8.95;;;4.80;;
72273;SDS011;60208;48.692;8.948;2023-05-29T05:57:23;6.43;;;4.65;;
72273;SDS011;60208;48.692;8.948;2023-05-29T05:59:48;6.43;;;4.13;;
72273;SDS011;60208;48.692;8.948;2023-05-29T06:02:14;6.57;;;4.55;;
72273;SDS011;60208;48.692;8.948;2023-05-29T06:04:39;6.85;;;4.68;;
72273;SDS011;60208;48.692;8.948;2023-05-29T06:07:05;8.45;;;4.95;;
72273;SDS011;60208;48.692;8.948;2023-05-29T06:09:39;7.80;;;4.45;;
72273;SDS011;60208;48.692;8.948;2023-05-29T06:12:05;5.88;;;4.10;;
72273;SDS011;60208;48.692;8.948;2023-05-29T06:14:32;10.90;;;4.70;;
72273;SDS011;60208;48.692;8.948;2023-05-29T06:16:58;7.18;;;4.80;;
72273;SDS011;60208;48.692;8.948;2023-05-29T06:19:23;10.07;;;4.20;;
72273;SDS011;60208;48.692;8.948;2023-05-29T06:21:49;11.52;;;4.68;;
72273;SDS011;60208;48.692;8.948;2023-05-29T06:24:14;6.60;;;4.50;;
72273;SDS011;60208;48.692;8.948;2023-05-29T06:26:40;6.57;;;3.90;;
72273;SDS011;60208;48.692;8.948;2023-05-29T06:29:06;6.72;;;4.07;;
72273;SDS011;60208;48.692;8.948;2023-05-29T06:31:31;9.70;;;4.45;;
72273;SDS011;60208;48.692;8.948;2023-05-29T06:33:58;11.38;;;4.10;;
72273;SDS011;60208;48.692;8.948;2023-05-29T06:36:23;7.65;;;4.43;;
72273;SDS011;60208;48.692;8.948;2023-05-29T06:38:49;5.63;;;3.95;;
72273;SDS011;60208;48.692;8.948;2023-05-29T06:41:15;9.38;;;4.63;;
72273;SDS011;60208;48.692;8.948;2023-05-29T06:43:41;7.28;;;3.90;;
72273;SDS011;60208;48.692;8.948;2023-05-29T06:46:06;6.50;;;3.90;;
72273;SDS011;60208;48.692;8.948;2023-05-29T06:48:32;7.05;;;4.18;;
72273;SDS011;60208;48.692;8.948;2023-05-29T06:50:59;7.88;;;4.20;;
72273;SDS011;60208;48.692;8.948;2023-05-29T06:53:24;8.95;;;3.97;;
72273;SDS011;60208;48.692;8.948;2023-05-29T06:55:50;6.32;;;4.07;;
72273;SDS011;60208;48.692;8.948;2023-05-29T06:58:15;6.97;;;4.25;;
72273;SDS011;60208;48.692;8.948;2023-05-29T07:00:40;6.32;;;4.22;;
72273;SDS011;60208;48.692;8.948;2023-05-29T07:03:06;6.40;;;3.97;;
72273;SDS011;60208;48.692;8.948;2023-05-29T07:05:32;8.20;;;4.28;;
72273;SDS011;60208;48.692;8.948;2023-05-29T07:07:57;6.00;;;4.00;;
72273;SDS011;60208;48.692;8.948;2023-05-29T07:10:22;9.30;;;4.10;;
72273;SDS011;60208;48.692;8.948;2023-05-29T07:12:48;6.22;;;3.70;;
72273;SDS011;60208;48.692;8.948;2023-05-29T07:15:13;7.40;;;4.03;;
72273;SDS011;60208;48.692;8.948;2023-05-29T07:17:39;5.35;;;3.55;;
72273;SDS011;60208;48.692;8.948;2023-05-29T07:20:04;5.75;;;3.95;;
72273;SDS011;60208;48.692;8.948;2023-05-29T07:22:33;7.68;;;4.18;;
72273;SDS011;60208;48.692;8.948;2023-05-29T07:24:59;6.68;;;4.07;;
72273;SDS011;60208;48.692;8.948;2023-05-29T07:27:24;5.90;;;3.80;;
72273;SDS011;60208;48.692;8.948;2023-05-29T07:29:50;5.82;;;4.00;;
72273;SDS011;60208;48.692;8.948;2023-05-29T07:32:16;6.47;;;3.92;;
72273;SDS011;60208;48.692;8.948;2023-05-29T07:34:41;7.75;;;4.43;;
72273;SDS011;60208;48.692;8.948;2023-05-29T07:37:07;7.70;;;4.53;;
72273;SDS011;60208;48.692;8.948;2023-05-29T07:39:33;6.43;;;3.85;;
72273;SDS011;60208;48.692;8.948;2023-05-29T07:42:00;8.05;;;5.50;;
72273;SDS011;60208;48.692;8.948;2023-05-29T07:44:28;8.63;;;3.90;;
72273;SDS011;60208;48.692;8.948;2023-05-29T07:46:54;8.95;;;5.05;;
72273;SDS011;60208;48.692;8.948;2023-05-29T07:49:20;8.55;;;4.57;;
72273;SDS011;60208;48.692;8.948;2023-05-29T07:51:45;6.75;;;4.40;;
72273;SDS011;60208;48.692;8.948;2023-05-29T07:54:11;5.95;;;4.07;;
72273;SDS011;60208;48.692;8.948;2023-05-29T07:56:37;7.30;;;4.13;;
72273;SDS011;60208;48.692;8.948;2023-05-29T07:59:03;8.60;;;4.53;;
72273;SDS011;60208;48.692;8.948;2023-05-29T08:01:29;6.10;;;3.53;;
72273;SDS011;60208;48.692;8.948;2023-05-29T08:03:55;7.45;;;4.15;;
72273;SDS011;60208;48.692;8.948;2023-05-29T08:06:20;5.55;;;3.60;;
72273;SDS011;60208;48.692;8.948;2023-05-29T08:08:46;7.20;;;4.47;;
72273;SDS011;60208;48.692;8.948;2023-05-29T08:11:11;9.35;;;4.53;;
72273;SDS011;60208;48.692;8.948;2023-05-29T08:13:37;7.57;;;4.60;;
72273;SDS011;60208;48.692;8.948;2023-05-29T08:16:02;7.07;;;4.25;;
72273;SDS011;60208;48.692;8.948;2023-05-29T08:18:30;8.02;;;3.85;;
72273;SDS011;60208;48.692;8.948;2023-05-29T08:20:56;8.02;;;4.05;;
72273;SDS011;60208;48.692;8.948;2023-05-29T08:23:22;6.47;;;4.05;;
72273;SDS011;60208;48.692;8.948;2023-05-29T08:25:47;7.30;;;4.18;;
72273;SDS011;60208;48.692;8.948;2023-05-29T08:28:13;9.02;;;5.40;;
72273;SDS011;60208;48.692;8.948;2023-05-29T08:30:39;5.15;;;3.90;;
72273;SDS011;60208;48.692;8.948;2023-05-29T08:33:05;6.72;;;3.88;;
72273;SDS011;60208;48.692;8.948;2023-05-29T08:35:30;7.40;;;4.10;;
72273;SDS011;60208;48.692;8.948;2023-05-29T08:37:56;8.30;;;4.00;;
72273;SDS011;60208;48.692;8.948;2023-05-29T08:40:21;5.50;;;3.63;;
72273;SDS011;60208;48.692;8.948;2023-05-29T08:42:48;5.53;;;3.72;;
72273;SDS011;60208;48.692;8.948;2023-05-29T08:45:16;5.60;;;3.80;;
72273;SDS011;60208;48.692;8.948;2023-05-29T08:47:43;6.72;;;3.88;;
72273;SDS011;60208;48.692;8.948;2023-05-29T08:50:09;7.07;;;3.85;;
72273;SDS011;60208;48.692;8.948;2023-05-29T08:52:35;5.57;;;3.78;;
72273;SDS011;60208;48.692;8.948;2023-05-29T08:55:01;6.47;;;3.83;;
72273;SDS011;60208;48.692;8.948;2023-05-29T08:57:28;6.75;;;3.40;;
72273;SDS011;60208;48.692;8.948;2023-05-29T08:59:54;5.28;;;3.70;;
72273;SDS011;60208;48.692;8.948;2023-05-29T09:02:20;7.53;;;4.43;;
72273;SDS011;60208;48.692;8.948;2023-05-29T09:04:46;6.00;;;3.25;;
72273;SDS011;60208;48.692;8.948;2023-05-29T09:07:17;6.25;;;3.92;;
72273;SDS011;60208;48.692;8.948;2023-05-29T09:09:47;6.75;;;3.60;;
72273;SDS011;60208;48.692;8.948;2023-05-29T09:12:13;8.30;;;4.28;;
72273;SDS011;60208;48.692;8.948;2023-05-29T09:14:42;9.27;;;4.40;;
72273;SDS011;60208;48.692;8.948;2023-05-29T09:17:09;6.63;;;3.60;;
72273;SDS011;60208;48.692;8.948;2023-05-29T09:19:35;7.43;;;4.18;;
72273;SDS011;60208;48.692;8.948;2023-05-29T09:24:28;5.70;;;4.05;;
72273;SDS011;60208;48.692;8.948;2023-05-29T09:26:53;6.32;;;4.20;;
72273;SDS011;60208;48.692;8.948;2023-05-29T09:29:19;7.80;;;3.80;;
72273;SDS011;60208;48.692;8.948;2023-05-29T09:31:48;7.20;;;4.57;;
72273;SDS011;60208;48.692;8.948;2023-05-29T09:34:14;7.55;;;4.13;;
72273;SDS011;60208;48.692;8.948;2023-05-29T09:36:39;8.52;;;4.72;;
72273;SDS011;60208;48.692;8.948;2023-05-29T09:39:05;6.88;;;4.20;;
72273;SDS011;60208;48.692;8.948;2023-05-29T09:41:34;15.68;;;8.75;;
72273;SDS011;60208;48.692;8.948;2023-05-29T09:44:06;11.33;;;8.13;;
72273;SDS011;60208;48.692;8.948;2023-05-29T09:46:35;8.68;;;5.05;;
72273;SDS011;60208;48.692;8.948;2023-05-29T09:49:07;7.30;;;4.22;;
72273;SDS011;60208;48.692;8.948;2023-05-29T09:51:35;12.13;;;10.57;;
72273;SDS011;60208;48.692;8.948;2023-05-29T09:54:12;8.70;;;5.22;;
72273;SDS011;60208;48.692;8.948;2023-05-29T09:56:40;5.80;;;4.20;;
72273;SDS011;60208;48.692;8.948;2023-05-29T09:59:08;6.63;;;3.90;;
72273;SDS011;60208;48.692;8.948;2023-05-29T10:01:35;5.63;;;3.97;;
72273;SDS011;60208;48.692;8.948;2023-05-29T10:04:04;13.55;;;7.78;;
72273;SDS011;60208;48.692;8.948;2023-05-29T10:06:29;7.88;;;4.95;;
72273;SDS011;60208;48.692;8.948;2023-05-29T10:08:55;4.50;;;3.50;;
72273;SDS011;60208;48.692;8.948;2023-05-29T10:11:22;5.35;;;3.90;;
72273;SDS011;60208;48.692;8.948;2023-05-29T10:13:49;4.75;;;3.80;;
72273;SDS011;60208;48.692;8.948;2023-05-29T10:16:17;7.05;;;3.63;;
72273;SDS011;60208;48.692;8.948;2023-05-29T10:18:47;9.07;;;3.67;;
72273;SDS011;60208;48.692;8.948;2023-05-29T10:21:15;4.15;;;3.22;;
72273;SDS011;60208;48.692;8.948;2023-05-29T10:23:43;5.90;;;3.65;;
72273;SDS011;60208;48.692;8.948;2023-05-29T10:26:15;5.63;;;3.38;;
72273;SDS011;60208;48.692;8.948;2023-05-29T10:28:47;7.32;;;3.50;;
72273;SDS011;60208;48.692;8.948;2023-05-29T10:31:24;6.07;;;3.42;;
72273;SDS011;60208;48.692;8.948;2023-05-29T10:36:37;4.68;;;3.63;;
72273;SDS011;60208;48.692;8.948;2023-05-29T10:39:08;3.97;;;3.15;;
72273;SDS011;60208;48.692;8.948;2023-05-29T10:41:33;5.80;;;3.40;;
72273;SDS011;60208;48.692;8.948;2023-05-29T10:44:04;6.05;;;2.83;;
72273;SDS011;60208;48.692;8.948;2023-05-29T10:49:22;3.97;;;3.13;;
72273;SDS011;60208;48.692;8.948;2023-05-29T10:51:48;5.18;;;3.08;;
72273;SDS011;60208;48.692;8.948;2023-05-29T10:54:14;6.95;;;2.85;;
72273;SDS011;60208;48.692;8.948;2023-05-29T10:56:41;6.15;;;3.25;;
72273;SDS011;60208;48.692;8.948;2023-05-29T10:59:10;4.30;;;2.90;;
72273;SDS011;60208;48.692;8.948;2023-05-29T11:01:38;4.10;;;2.90;;
72273;SDS011;60208;48.692;8.948;2023-05-29T11:06:45;4.35;;;3.22;;
72273;SDS011;60208;48.692;8.948;2023-05-29T11:09:27;5.32;;;2.90;;
72273;SDS011;60208;48.692;8.948;2023-05-29T11:15:19;5.17;;;4.00;;
72273;SDS011;60208;48.692;8.948;2023-05-29T11:17:43;6.45;;;3.85;;
72273;SDS011;60208;48.692;8.948;2023-05-29T11:20:17;4.72;;;2.95;;
72273;SDS011;60208;48.692;8.948;2023-05-29T11:23:02;10.43;;;9.35;;
72273;SDS011;60208;48.692;8.948;2023-05-29T11:25:32;5.55;;;3.20;;
72273;SDS011;60208;48.692;8.948;2023-05-29T11:27:59;5.50;;;2.70;;
72273;SDS011;60208;48.692;8.948;2023-05-29T11:30:25;4.85;;;2.22;;
72273;SDS011;60208;48.692;8.948;2023-05-29T11:32:51;8.77;;;2.50;;
72273;SDS011;60208;48.692;8.948;2023-05-29T11:35:17;4.53;;;2.20;;
72273;SDS011;60208;48.692;8.948;2023-05-29T11:37:44;4.35;;;2.53;;
72273;SDS011;60208;48.692;8.948;2023-05-29T11:40:13;3.85;;;2.90;;
72273;SDS011;60208;48.692;8.948;2023-05-29T11:42:43;5.25;;;2.60;;
72273;SDS011;60208;48.692;8.948;2023-05-29T11:45:15;3.00;;;2.45;;
72273;SDS011;60208;48.692;8.948;2023-05-29T11:47:54;3.88;;;2.63;;
72273;SDS011;60208;48.692;8.948;2023-05-29T11:50:25;9.80;;;3.20;;
72273;SDS011;60208;48.692;8.948;2023-05-29T11:52:54;5.53;;;2.80;;
72273;SDS011;60208;48.692;8.948;2023-05-29T11:55:21;4.05;;;2.70;;
72273;SDS011;60208;48.692;8.948;2023-05-29T11:57:47;3.60;;;2.53;;
72273;SDS011;60208;48.692;8.948;2023-05-29T12:00:14;3.80;;;2.55;;
72273;SDS011;60208;48.692;8.948;2023-05-29T12:02:40;6.80;;;4.20;;
72273;SDS011;60208;48.692;8.948;2023-05-29T12:05:07;2.95;;;2.40;;
72273;SDS011;60208;48.692;8.948;2023-05-29T12:07:33;6.40;;;2.70;;
72273;SDS011;60208;48.692;8.948;2023-05-29T12:10:12;2.97;;;2.15;;
72273;SDS011;60208;48.692;8.948;2023-05-29T12:12:39;5.20;;;2.63;;
72273;SDS011;60208;48.692;8.948;2023-05-29T12:15:05;4.78;;;2.58;;
72273;SDS011;60208;48.692;8.948;2023-05-29T12:17:32;5.35;;;2.60;;
72273;SDS011;60208;48.692;8.948;2023-05-29T12:19:58;2.80;;;2.38;;
72273;SDS011;60208;48.692;8.948;2023-05-29T12:22:33;3.58;;;2.40;;
72273;SDS011;60208;48.692;8.948;2023-05-29T12:25:09;3.38;;;3.03;;
72273;SDS011;60208;48.692;8.948;2023-05-29T12:27:39;2.78;;;2.00;;
72273;SDS011;60208;48.692;8.948;2023-05-29T12:30:11;5.07;;;2.33;;
72273;SDS011;60208;48.692;8.948;2023-05-29T12:32:43;3.17;;;2.10;;
72273;SDS011;60208;48.692;8.948;2023-05-29T12:35:13;4.38;;;2.40;;
72273;SDS011;60208;48.692;8.948;2023-05-29T12:37:42;4.43;;;2.10;;
72273;SDS011;60208;48.692;8.948;2023-05-29T12:40:09;4.45;;;2.03;;
72273;SDS011;60208;48.692;8.948;2023-05-29T12:45:21;3.47;;;2.30;;
72273;SDS011;60208;48.692;8.948;2023-05-29T12:47:54;4.35;;;2.40;;
72273;SDS011;60208;48.692;8.948;2023-05-29T12:50:20;4.10;;;2.35;;
72273;SDS011;60208;48.692;8.948;2023-05-29T12:53:02;4.95;;;2.42;;
72273;SDS011;60208;48.692;8.948;2023-05-29T12:55:31;4.05;;;2.40;;
72273;SDS011;60208;48.692;8.948;2023-05-29T12:58:04;4.53;;;3.10;;
72273;SDS011;60208;48.692;8.948;2023-05-29T13:00:29;5.38;;;2.80;;
72273;SDS011;60208;48.692;8.948;2023-05-29T13:02:56;4.18;;;2.85;;
72273;SDS011;60208;48.692;8.948;2023-05-29T13:05:21;6.00;;;2.30;;
72273;SDS011;60208;48.692;8.948;2023-05-29T13:07:48;4.00;;;2.38;;
72273;SDS011;60208;48.692;8.948;2023-05-29T13:10:14;3.95;;;2.38;;
72273;SDS011;60208;48.692;8.948;2023-05-29T13:12:40;2.47;;;1.80;;
72273;SDS011;60208;48.692;8.948;2023-05-29T13:15:06;5.07;;;2.50;;
72273;SDS011;60208;48.692;8.948;2023-05-29T13:17:32;7.80;;;3.38;;
72273;SDS011;60208;48.692;8.948;2023-05-29T13:19:58;4.35;;;2.40;;
72273;SDS011;60208;48.692;8.948;2023-05-29T13:22:24;2.42;;;2.05;;
72273;SDS011;60208;48.692;8.948;2023-05-29T13:24:55;2.93;;;2.17;;
72273;SDS011;60208;48.692;8.948;2023-05-29T13:27:22;2.38;;;2.17;;
72273;SDS011;60208;48.692;8.948;2023-05-29T13:29:48;4.03;;;2.00;;
72273;SDS011;60208;48.692;8.948;2023-05-29T13:32:14;5.10;;;2.05;;
72273;SDS011;60208;48.692;8.948;2023-05-29T13:34:40;4.55;;;2.38;;
72273;SDS011;60208;48.692;8.948;2023-05-29T13:37:05;3.97;;;2.25;;
72273;SDS011;60208;48.692;8.948;2023-05-29T13:39:31;3.15;;;2.20;;
72273;SDS011;60208;48.692;8.948;2023-05-29T13:41:56;3.17;;;1.95;;
72273;SDS011;60208;48.692;8.948;2023-05-29T13:44:22;2.72;;;2.10;;
72273;SDS011;60208;48.692;8.948;2023-05-29T13:46:47;3.27;;;2.50;;
72273;SDS011;60208;48.692;8.948;2023-05-29T13:49:12;4.30;;;2.40;;
72273;SDS011;60208;48.692;8.948;2023-05-29T13:51:38;3.93;;;2.30;;
72273;SDS011;60208;48.692;8.948;2023-05-29T13:54:03;2.93;;;2.40;;
72273;SDS011;60208;48.692;8.948;2023-05-29T13:56:29;5.10;;;2.90;;
72273;SDS011;60208;48.692;8.948;2023-05-29T13:58:55;2.88;;;2.35;;
72273;SDS011;60208;48.692;8.948;2023-05-29T14:01:20;4.13;;;2.58;;
72273;SDS011;60208;48.692;8.948;2023-05-29T14:03:46;3.15;;;2.67;;
72273;SDS011;60208;48.692;8.948;2023-05-29T14:06:12;5.13;;;2.85;;
72273;SDS011;60208;48.692;8.948;2023-05-29T14:08:39;6.45;;;2.90;;
72273;SDS011;60208;48.692;8.948;2023-05-29T14:11:05;2.63;;;2.38;;
72273;SDS011;60208;48.692;8.948;2023-05-29T14:13:30;3.27;;;2.97;;
72273;SDS011;60208;48.692;8.948;2023-05-29T14:15:55;6.47;;;2.42;;
72273;SDS011;60208;48.692;8.948;2023-05-29T14:18:22;5.15;;;2.65;;
72273;SDS011;60208;48.692;8.948;2023-05-29T14:20:48;3.85;;;2.78;;
72273;SDS011;60208;48.692;8.948;2023-05-29T14:23:14;6.50;;;2.53;;
72273;SDS011;60208;48.692;8.948;2023-05-29T14:25:43;2.70;;;2.40;;
72273;SDS011;60208;48.692;8.948;2023-05-29T14:28:09;3.67;;;2.30;;
72273;SDS011;60208;48.692;8.948;2023-05-29T14:30:35;5.32;;;2.80;;
72273;SDS011;60208;48.692;8.948;2023-05-29T14:33:01;4.40;;;2.60;;
72273;SDS011;60208;48.692;8.948;2023-05-29T14:35:26;5.55;;;2.70;;
72273;SDS011;60208;48.692;8.948;2023-05-29T14:37:52;4.72;;;3.00;;
72273;SDS011;60208;48.692;8.948;2023-05-29T14:40:17;3.97;;;2.95;;
72273;SDS011;60208;48.692;8.948;2023-05-29T14:42:43;4.82;;;2.40;;
72273;SDS011;60208;48.692;8.948;2023-05-29T14:45:08;2.45;;;2.22;;
72273;SDS011;60208;48.692;8.948;2023-05-29T14:47:34;3.95;;;2.95;;
72273;SDS011;60208;48.692;8.948;2023-05-29T14:50:00;2.63;;;2.28;;
72273;SDS011;60208;48.692;8.948;2023-05-29T14:52:25;4.60;;;2.60;;
72273;SDS011;60208;48.692;8.948;2023-05-29T14:54:51;4.20;;;2.53;;
72273;SDS011;60208;48.692;8.948;2023-05-29T14:57:16;4.77;;;3.10;;
72273;SDS011;60208;48.692;8.948;2023-05-29T14:59:41;6.18;;;3.10;;
72273;SDS011;60208;48.692;8.948;2023-05-29T15:02:07;4.93;;;2.92;;